OUA1011 EGGW-LEIB
Flight info
| Callsign | OUA1011 |
|---|---|
| Flight time | N/A |
| Altitude | 31000 |
| Route | RODNI N27 ICTAM Q63 CPT N859 GWC UN859 SOPIL DCT BALAN DCT EVPOK DCT NARAK DCT GAI DCT LOMRA DCT ROCAN DCT PUMAL DCT XEPLA DCT BCN DCT CORDA |
| Aircraft | L101/H-SDFGHIRWXY/S |
Departure
| Time | 2026-04-30 14:19 |
|---|---|
| Airport | London Luton Airport (EGGW) |
Arrival
| Time | N/A |
|---|---|
| Airport | Ibiza Airport (LEIB) |
| Time | Latitude | Longitude | Altitude | Speed | Heading |
|---|---|---|---|---|---|
| 2026-04-30 12:53 | 51.88169 | -0.37375 | 521 ft | 0 kts | 161° |
| 2026-04-30 13:56 | 51.88170 | -0.37375 | 521 ft | 2 kts | 161° |
| 2026-04-30 13:57 | 51.88193 | -0.37388 | 521 ft | 3 kts | 155° |
| 2026-04-30 13:57 | 51.88209 | -0.37400 | 521 ft | 4 kts | 200° |
| 2026-04-30 13:57 | 51.88210 | -0.37400 | 521 ft | 0 kts | 211° |
| 2026-04-30 13:59 | 51.88229 | -0.37382 | 521 ft | 0 kts | 211° |
| 2026-04-30 14:01 | 51.88228 | -0.37382 | 521 ft | 0 kts | 211° |
| 2026-04-30 14:02 | 51.88228 | -0.37383 | 521 ft | 0 kts | 211° |
| 2026-04-30 14:07 | 51.88227 | -0.37383 | 521 ft | 0 kts | 209° |
| 2026-04-30 14:08 | 51.88220 | -0.37371 | 521 ft | 1 kts | 115° |
| 2026-04-30 14:08 | 51.88225 | -0.37352 | 521 ft | 3 kts | 72° |
| 2026-04-30 14:08 | 51.88232 | -0.37263 | 522 ft | 3 kts | 120° |
| 2026-04-30 14:09 | 51.88202 | -0.37233 | 521 ft | 8 kts | 155° |
| 2026-04-30 14:09 | 51.88127 | -0.37190 | 517 ft | 13 kts | 161° |
| 2026-04-30 14:09 | 51.87972 | -0.37107 | 514 ft | 7 kts | 162° |
| 2026-04-30 14:10 | 51.87924 | -0.37081 | 514 ft | 8 kts | 162° |
| 2026-04-30 14:10 | 51.87857 | -0.37038 | 516 ft | 10 kts | 142° |
| 2026-04-30 14:10 | 51.87830 | -0.36950 | 517 ft | 8 kts | 126° |
| 2026-04-30 14:10 | 51.87792 | -0.36913 | 519 ft | 5 kts | 161° |
| 2026-04-30 14:11 | 51.87771 | -0.36902 | 521 ft | 2 kts | 161° |
| 2026-04-30 14:11 | 51.87763 | -0.36898 | 521 ft | 1 kts | 161° |
| 2026-04-30 14:11 | 51.87739 | -0.36885 | 523 ft | 8 kts | 161° |
| 2026-04-30 14:11 | 51.87689 | -0.36858 | 526 ft | 6 kts | 162° |
| 2026-04-30 14:12 | 51.87667 | -0.36856 | 529 ft | 1 kts | 185° |
| 2026-04-30 14:12 | 51.87652 | -0.36872 | 530 ft | 8 kts | 229° |
| 2026-04-30 14:12 | 51.87623 | -0.37006 | 527 ft | 17 kts | 255° |
| 2026-04-30 14:12 | 51.87598 | -0.37153 | 527 ft | 7 kts | 254° |
| 2026-04-30 14:13 | 51.87595 | -0.37173 | 527 ft | 2 kts | 254° |
| 2026-04-30 14:13 | 51.87588 | -0.37210 | 527 ft | 5 kts | 254° |
| 2026-04-30 14:13 | 51.87577 | -0.37308 | 527 ft | 13 kts | 269° |
| 2026-04-30 14:13 | 51.87547 | -0.37460 | 526 ft | 16 kts | 211° |
| 2026-04-30 14:14 | 51.87491 | -0.37612 | 528 ft | 17 kts | 254° |
| 2026-04-30 14:14 | 51.87456 | -0.37812 | 527 ft | 20 kts | 254° |
| 2026-04-30 14:14 | 51.87424 | -0.37981 | 529 ft | 16 kts | 243° |
| 2026-04-30 14:14 | 51.87363 | -0.38070 | 528 ft | 0 kts | 205° |
| 2026-04-30 14:16 | 51.87343 | -0.38085 | 527 ft | 6 kts | 205° |
| 2026-04-30 14:16 | 51.87286 | -0.38112 | 527 ft | 9 kts | 183° |
| 2026-04-30 14:16 | 51.87238 | -0.38158 | 528 ft | 9 kts | 244° |
| 2026-04-30 14:16 | 51.87209 | -0.38255 | 526 ft | 10 kts | 219° |
| 2026-04-30 14:17 | 51.87201 | -0.38313 | 525 ft | 2 kts | 328° |
| 2026-04-30 14:17 | 51.87210 | -0.38309 | 525 ft | 1 kts | 24° |
| 2026-04-30 14:17 | 51.87217 | -0.38280 | 526 ft | 0 kts | 77° |
| 2026-04-30 14:18 | 51.87218 | -0.38270 | 526 ft | 5 kts | 77° |
| 2026-04-30 14:18 | 51.87386 | -0.37293 | 527 ft | 115 kts | 77° |
| 2026-04-30 14:19 | 51.87966 | -0.34179 | 1885 ft | 149 kts | 76° |
| 2026-04-30 14:19 | 51.88344 | -0.32468 | 2510 ft | 176 kts | 74° |
| 2026-04-30 14:19 | 51.88785 | -0.30608 | 2995 ft | 176 kts | 75° |
| 2026-04-30 14:20 | 51.89235 | -0.28892 | 3455 ft | 160 kts | 75° |
| 2026-04-30 14:20 | 51.89669 | -0.27242 | 3797 ft | 157 kts | 82° |
| 2026-04-30 14:20 | 51.89186 | -0.23906 | 3932 ft | 183 kts | 127° |
| 2026-04-30 14:21 | 51.88357 | -0.22188 | 3956 ft | 201 kts | 130° |
| 2026-04-30 14:21 | 51.87478 | -0.20380 | 3901 ft | 205 kts | 129° |
| 2026-04-30 14:21 | 51.85157 | -0.17930 | 3930 ft | 210 kts | 170° |
| 2026-04-30 14:22 | 51.83727 | -0.18311 | 3929 ft | 207 kts | 197° |
| 2026-04-30 14:22 | 51.82069 | -0.22013 | 3994 ft | 222 kts | 255° |
| 2026-04-30 14:22 | 51.82191 | -0.24421 | 4008 ft | 232 kts | 282° |
| 2026-04-30 14:23 | 51.83377 | -0.29223 | 4001 ft | 226 kts | 269° |
| 2026-04-30 14:23 | 51.82949 | -0.34435 | 4031 ft | 250 kts | 250° |
| 2026-04-30 14:24 | 51.82022 | -0.39919 | 3985 ft | 254 kts | 248° |
| 2026-04-30 14:24 | 51.81557 | -0.42682 | 4005 ft | 261 kts | 249° |
| 2026-04-30 14:25 | 51.80638 | -0.48478 | 3943 ft | 266 kts | 252° |
| 2026-04-30 14:25 | 51.79775 | -0.54293 | 4015 ft | 269 kts | 252° |
| 2026-04-30 14:26 | 51.78893 | -0.60141 | 3984 ft | 267 kts | 251° |
| 2026-04-30 14:26 | 51.78446 | -0.63056 | 3978 ft | 267 kts | 251° |
| 2026-04-30 14:26 | 51.77542 | -0.68882 | 3967 ft | 267 kts | 252° |
| 2026-04-30 14:27 | 51.77096 | -0.71780 | 3970 ft | 265 kts | 251° |
| 2026-04-30 14:27 | 51.76646 | -0.74681 | 3724 ft | 266 kts | 251° |
| 2026-04-30 14:27 | 51.76204 | -0.77538 | 3973 ft | 267 kts | 250° |
| 2026-04-30 14:28 | 51.74319 | -0.82623 | 4926 ft | 266 kts | 220° |
| 2026-04-30 14:28 | 51.72970 | -0.84652 | 4976 ft | 263 kts | 215° |
| 2026-04-30 14:28 | 51.71572 | -0.86554 | 4958 ft | 262 kts | 214° |